sensor_id;sensor_type;location;lat;lon;timestamp;pressure;altitude;pressure_sealevel;temperature;humidity
22938;BME280;11634;42.734;23.298;2023-02-25T00:01:13;94575.53;;;5.73;100.00
22938;BME280;11634;42.734;23.298;2023-02-25T00:03:39;94609.28;;;5.92;100.00
22938;BME280;11634;42.734;23.298;2023-02-25T00:06:07;94619.16;;;5.87;100.00
22938;BME280;11634;42.734;23.298;2023-02-25T00:08:34;94607.00;;;5.67;100.00
22938;BME280;11634;42.734;23.298;2023-02-25T00:11:04;94609.25;;;5.61;100.00
22938;BME280;11634;42.734;23.298;2023-02-25T00:13:30;94600.69;;;5.60;100.00
22938;BME280;11634;42.734;23.298;2023-02-25T00:15:56;94578.09;;;5.42;100.00
22938;BME280;11634;42.734;23.298;2023-02-25T00:18:29;94611.44;;;5.65;100.00
22938;BME280;11634;42.734;23.298;2023-02-25T00:20:56;94613.91;;;5.67;100.00
22938;BME280;11634;42.734;23.298;2023-02-25T00:23:22;94602.44;;;5.60;100.00
22938;BME280;11634;42.734;23.298;2023-02-25T00:25:48;94601.84;;;5.67;100.00
22938;BME280;11634;42.734;23.298;2023-02-25T00:28:14;94605.72;;;5.62;100.00
22938;BME280;11634;42.734;23.298;2023-02-25T00:30:40;94593.03;;;5.81;100.00
22938;BME280;11634;42.734;23.298;2023-02-25T00:33:08;94595.56;;;5.92;100.00
22938;BME280;11634;42.734;23.298;2023-02-25T00:35:38;94572.81;;;5.86;100.00
22938;BME280;11634;42.734;23.298;2023-02-25T00:38:05;94588.09;;;5.89;100.00
22938;BME280;11634;42.734;23.298;2023-02-25T00:40:32;94593.94;;;5.91;100.00
22938;BME280;11634;42.734;23.298;2023-02-25T00:42:58;94576.38;;;5.85;100.00
22938;BME280;11634;42.734;23.298;2023-02-25T00:45:24;94579.28;;;5.80;100.00
22938;BME280;11634;42.734;23.298;2023-02-25T00:47:50;94551.50;;;5.73;100.00
22938;BME280;11634;42.734;23.298;2023-02-25T00:50:15;94558.84;;;5.88;100.00
22938;BME280;11634;42.734;23.298;2023-02-25T00:52:41;94556.91;;;5.81;100.00
22938;BME280;11634;42.734;23.298;2023-02-25T00:55:07;94548.91;;;5.73;100.00
22938;BME280;11634;42.734;23.298;2023-02-25T00:57:33;94576.16;;;5.77;100.00
22938;BME280;11634;42.734;23.298;2023-02-25T00:59:58;94558.88;;;5.77;100.00
22938;BME280;11634;42.734;23.298;2023-02-25T01:02:24;94557.56;;;5.83;100.00
22938;BME280;11634;42.734;23.298;2023-02-25T01:04:49;94539.03;;;5.89;100.00
22938;BME280;11634;42.734;23.298;2023-02-25T01:07:15;94538.41;;;5.96;100.00
22938;BME280;11634;42.734;23.298;2023-02-25T01:09:42;94523.75;;;5.86;100.00
22938;BME280;11634;42.734;23.298;2023-02-25T01:12:09;94535.34;;;5.91;100.00
22938;BME280;11634;42.734;23.298;2023-02-25T01:14:34;94508.78;;;5.80;100.00
22938;BME280;11634;42.734;23.298;2023-02-25T01:17:02;94530.94;;;5.82;100.00
22938;BME280;11634;42.734;23.298;2023-02-25T01:19:29;94534.53;;;5.91;100.00
22938;BME280;11634;42.734;23.298;2023-02-25T01:21:56;94521.75;;;5.89;100.00
22938;BME280;11634;42.734;23.298;2023-02-25T01:24:25;94537.88;;;6.02;100.00
22938;BME280;11634;42.734;23.298;2023-02-25T01:26:55;94541.56;;;5.99;100.00
22938;BME280;11634;42.734;23.298;2023-02-25T01:29:25;94542.75;;;5.96;100.00
22938;BME280;11634;42.734;23.298;2023-02-25T01:31:56;94527.75;;;5.90;100.00
22938;BME280;11634;42.734;23.298;2023-02-25T01:34:23;94521.72;;;6.00;100.00
22938;BME280;11634;42.734;23.298;2023-02-25T01:36:50;94521.59;;;6.01;100.00
22938;BME280;11634;42.734;23.298;2023-02-25T01:39:17;94533.75;;;6.10;100.00
22938;BME280;11634;42.734;23.298;2023-02-25T01:41:44;94527.13;;;5.97;100.00
22938;BME280;11634;42.734;23.298;2023-02-25T01:44:19;94534.03;;;5.97;100.00
22938;BME280;11634;42.734;23.298;2023-02-25T01:46:48;94531.50;;;5.86;100.00
22938;BME280;11634;42.734;23.298;2023-02-25T01:51:44;94534.97;;;5.75;100.00
22938;BME280;11634;42.734;23.298;2023-02-25T01:54:10;94493.63;;;5.55;100.00
22938;BME280;11634;42.734;23.298;2023-02-25T01:56:43;94519.50;;;5.75;100.00
22938;BME280;11634;42.734;23.298;2023-02-25T01:59:13;94527.25;;;5.96;100.00
22938;BME280;11634;42.734;23.298;2023-02-25T02:01:39;94535.47;;;5.90;100.00
22938;BME280;11634;42.734;23.298;2023-02-25T02:04:07;94533.66;;;5.81;100.00
22938;BME280;11634;42.734;23.298;2023-02-25T02:06:38;94527.00;;;5.67;100.00
22938;BME280;11634;42.734;23.298;2023-02-25T02:09:09;94490.63;;;5.39;100.00
22938;BME280;11634;42.734;23.298;2023-02-25T02:11:36;94519.13;;;5.69;100.00
22938;BME280;11634;42.734;23.298;2023-02-25T02:14:03;94527.31;;;5.74;100.00
22938;BME280;11634;42.734;23.298;2023-02-25T02:16:43;94484.56;;;5.60;100.00
22938;BME280;11634;42.734;23.298;2023-02-25T02:24:53;94515.63;;;5.70;100.00
22938;BME280;11634;42.734;23.298;2023-02-25T02:27:29;94503.44;;;5.61;100.00
22938;BME280;11634;42.734;23.298;2023-02-25T02:30:02;94517.34;;;5.69;100.00
22938;BME280;11634;42.734;23.298;2023-02-25T02:32:50;94503.19;;;5.64;100.00
22938;BME280;11634;42.734;23.298;2023-02-25T02:38:19;94505.88;;;5.62;100.00
22938;BME280;11634;42.734;23.298;2023-02-25T02:43:53;94492.59;;;5.67;100.00
22938;BME280;11634;42.734;23.298;2023-02-25T02:46:25;94473.47;;;5.69;100.00
22938;BME280;11634;42.734;23.298;2023-02-25T02:48:59;94469.13;;;5.81;100.00
22938;BME280;11634;42.734;23.298;2023-02-25T02:51:33;94474.97;;;5.83;100.00
22938;BME280;11634;42.734;23.298;2023-02-25T02:54:03;94472.19;;;5.75;100.00
22938;BME280;11634;42.734;23.298;2023-02-25T02:56:34;94480.53;;;5.67;100.00
22938;BME280;11634;42.734;23.298;2023-02-25T02:59:05;94468.19;;;5.71;100.00
22938;BME280;11634;42.734;23.298;2023-02-25T03:01:37;94450.63;;;5.65;100.00
22938;BME280;11634;42.734;23.298;2023-02-25T03:04:08;94477.72;;;5.70;100.00
22938;BME280;11634;42.734;23.298;2023-02-25T03:06:42;94496.50;;;5.61;100.00
22938;BME280;11634;42.734;23.298;2023-02-25T03:09:18;94507.72;;;5.51;100.00
22938;BME280;11634;42.734;23.298;2023-02-25T03:11:47;94503.28;;;5.42;100.00
22938;BME280;11634;42.734;23.298;2023-02-25T03:14:13;94504.19;;;5.41;100.00
22938;BME280;11634;42.734;23.298;2023-02-25T03:16:55;94503.78;;;5.36;100.00
22938;BME280;11634;42.734;23.298;2023-02-25T03:19:44;94499.19;;;5.29;100.00
22938;BME280;11634;42.734;23.298;2023-02-25T03:22:15;94502.75;;;5.17;100.00
22938;BME280;11634;42.734;23.298;2023-02-25T03:25:17;94500.81;;;4.98;100.00
22938;BME280;11634;42.734;23.298;2023-02-25T03:27:48;94494.38;;;4.93;100.00
22938;BME280;11634;42.734;23.298;2023-02-25T03:31:07;94477.91;;;4.74;100.00
22938;BME280;11634;42.734;23.298;2023-02-25T03:36:11;94498.28;;;4.55;100.00
22938;BME280;11634;42.734;23.298;2023-02-25T03:38:42;94507.75;;;4.32;100.00
22938;BME280;11634;42.734;23.298;2023-02-25T03:41:10;94510.66;;;4.17;100.00
22938;BME280;11634;42.734;23.298;2023-02-25T03:43:44;94508.22;;;4.16;100.00
22938;BME280;11634;42.734;23.298;2023-02-25T03:46:11;94481.13;;;3.88;100.00
22938;BME280;11634;42.734;23.298;2023-02-25T03:48:37;94493.28;;;3.86;100.00
22938;BME280;11634;42.734;23.298;2023-02-25T03:51:08;94492.22;;;3.78;100.00
22938;BME280;11634;42.734;23.298;2023-02-25T03:53:35;94496.91;;;3.50;100.00
22938;BME280;11634;42.734;23.298;2023-02-25T03:56:10;94482.56;;;3.58;100.00
22938;BME280;11634;42.734;23.298;2023-02-25T03:58:40;94476.56;;;3.47;100.00
22938;BME280;11634;42.734;23.298;2023-02-25T04:01:20;94443.31;;;3.22;100.00
22938;BME280;11634;42.734;23.298;2023-02-25T04:03:47;94477.66;;;3.55;100.00
22938;BME280;11634;42.734;23.298;2023-02-25T04:06:14;94461.41;;;3.55;100.00
22938;BME280;11634;42.734;23.298;2023-02-25T04:08:40;94490.31;;;3.69;100.00
22938;BME280;11634;42.734;23.298;2023-02-25T04:11:07;94480.09;;;3.57;100.00
22938;BME280;11634;42.734;23.298;2023-02-25T04:13:32;94456.16;;;3.56;100.00
22938;BME280;11634;42.734;23.298;2023-02-25T04:15:58;94471.59;;;3.67;100.00
22938;BME280;11634;42.734;23.298;2023-02-25T04:18:24;94477.44;;;3.69;100.00
22938;BME280;11634;42.734;23.298;2023-02-25T04:20:51;94472.44;;;3.78;100.00
22938;BME280;11634;42.734;23.298;2023-02-25T04:23:16;94487.19;;;3.77;100.00
22938;BME280;11634;42.734;23.298;2023-02-25T04:25:42;94456.56;;;3.84;100.00
22938;BME280;11634;42.734;23.298;2023-02-25T04:28:09;94469.56;;;3.94;100.00
22938;BME280;11634;42.734;23.298;2023-02-25T04:30:35;94458.31;;;3.95;100.00
22938;BME280;11634;42.734;23.298;2023-02-25T04:33:01;94439.88;;;4.01;100.00
22938;BME280;11634;42.734;23.298;2023-02-25T04:35:27;94442.81;;;4.07;100.00
22938;BME280;11634;42.734;23.298;2023-02-25T04:37:52;94436.38;;;4.13;100.00
22938;BME280;11634;42.734;23.298;2023-02-25T04:40:20;94413.19;;;4.13;100.00
22938;BME280;11634;42.734;23.298;2023-02-25T04:42:46;94391.50;;;4.26;100.00
22938;BME280;11634;42.734;23.298;2023-02-25T04:45:13;94404.03;;;4.52;100.00
22938;BME280;11634;42.734;23.298;2023-02-25T04:47:41;94417.03;;;4.51;100.00
22938;BME280;11634;42.734;23.298;2023-02-25T04:50:08;94395.25;;;4.44;100.00
22938;BME280;11634;42.734;23.298;2023-02-25T04:52:34;94391.63;;;4.35;100.00
22938;BME280;11634;42.734;23.298;2023-02-25T04:55:00;94402.38;;;4.51;100.00
22938;BME280;11634;42.734;23.298;2023-02-25T04:57:25;94406.00;;;4.49;100.00
22938;BME280;11634;42.734;23.298;2023-02-25T04:59:51;94416.56;;;4.46;100.00
22938;BME280;11634;42.734;23.298;2023-02-25T05:02:16;94419.25;;;4.55;100.00
22938;BME280;11634;42.734;23.298;2023-02-25T05:04:42;94398.91;;;4.41;100.00
22938;BME280;11634;42.734;23.298;2023-02-25T05:07:08;94408.47;;;4.50;100.00
22938;BME280;11634;42.734;23.298;2023-02-25T05:09:34;94416.69;;;4.44;100.00
22938;BME280;11634;42.734;23.298;2023-02-25T05:12:02;94411.28;;;4.47;100.00
22938;BME280;11634;42.734;23.298;2023-02-25T05:14:28;94410.69;;;4.55;100.00
22938;BME280;11634;42.734;23.298;2023-02-25T05:16:54;94398.28;;;4.49;100.00
22938;BME280;11634;42.734;23.298;2023-02-25T05:19:24;94376.25;;;4.56;100.00
22938;BME280;11634;42.734;23.298;2023-02-25T05:21:52;94409.25;;;4.73;100.00
22938;BME280;11634;42.734;23.298;2023-02-25T05:24:18;94416.75;;;4.76;100.00
22938;BME280;11634;42.734;23.298;2023-02-25T05:26:44;94414.41;;;4.73;100.00
22938;BME280;11634;42.734;23.298;2023-02-25T05:29:11;94419.53;;;4.84;100.00
22938;BME280;11634;42.734;23.298;2023-02-25T05:31:38;94417.44;;;4.67;100.00
22938;BME280;11634;42.734;23.298;2023-02-25T05:34:04;94407.41;;;4.53;100.00
22938;BME280;11634;42.734;23.298;2023-02-25T05:36:48;94430.34;;;4.67;100.00
22938;BME280;11634;42.734;23.298;2023-02-25T05:39:14;94436.53;;;4.75;100.00
22938;BME280;11634;42.734;23.298;2023-02-25T05:41:40;94427.47;;;4.91;100.00
22938;BME280;11634;42.734;23.298;2023-02-25T05:44:06;94416.03;;;4.85;100.00
22938;BME280;11634;42.734;23.298;2023-02-25T05:46:32;94445.06;;;4.87;100.00
22938;BME280;11634;42.734;23.298;2023-02-25T05:48:58;94442.09;;;4.91;100.00
22938;BME280;11634;42.734;23.298;2023-02-25T05:51:23;94463.03;;;5.08;100.00
22938;BME280;11634;42.734;23.298;2023-02-25T05:53:50;94462.19;;;5.19;100.00
22938;BME280;11634;42.734;23.298;2023-02-25T05:56:19;94454.44;;;5.30;100.00
22938;BME280;11634;42.734;23.298;2023-02-25T05:58:46;94480.06;;;5.42;100.00
22938;BME280;11634;42.734;23.298;2023-02-25T06:01:18;94460.47;;;5.40;100.00
22938;BME280;11634;42.734;23.298;2023-02-25T06:03:45;94476.47;;;5.34;100.00
22938;BME280;11634;42.734;23.298;2023-02-25T06:06:12;94442.50;;;5.18;100.00
22938;BME280;11634;42.734;23.298;2023-02-25T06:08:39;94459.75;;;5.48;100.00
22938;BME280;11634;42.734;23.298;2023-02-25T06:11:06;94472.41;;;5.51;100.00
22938;BME280;11634;42.734;23.298;2023-02-25T06:13:33;94478.38;;;5.72;100.00
22938;BME280;11634;42.734;23.298;2023-02-25T06:16:04;94485.56;;;5.80;100.00
22938;BME280;11634;42.734;23.298;2023-02-25T06:18:30;94476.88;;;6.01;100.00
22938;BME280;11634;42.734;23.298;2023-02-25T06:21:03;94485.88;;;6.06;100.00
22938;BME280;11634;42.734;23.298;2023-02-25T06:23:30;94475.03;;;6.12;100.00
22938;BME280;11634;42.734;23.298;2023-02-25T06:25:57;94489.06;;;6.19;100.00
22938;BME280;11634;42.734;23.298;2023-02-25T06:28:22;94499.19;;;6.32;100.00
22938;BME280;11634;42.734;23.298;2023-02-25T06:30:48;94491.13;;;6.46;100.00
22938;BME280;11634;42.734;23.298;2023-02-25T06:33:19;94512.41;;;6.58;100.00
22938;BME280;11634;42.734;23.298;2023-02-25T06:35:50;94512.28;;;6.99;100.00
22938;BME280;11634;42.734;23.298;2023-02-25T06:38:16;94512.50;;;7.26;100.00
22938;BME280;11634;42.734;23.298;2023-02-25T06:40:41;94522.31;;;7.32;100.00
22938;BME280;11634;42.734;23.298;2023-02-25T06:43:07;94514.56;;;7.41;100.00
22938;BME280;11634;42.734;23.298;2023-02-25T06:45:33;94506.94;;;7.30;100.00
22938;BME280;11634;42.734;23.298;2023-02-25T06:47:58;94495.78;;;7.39;100.00
22938;BME280;11634;42.734;23.298;2023-02-25T06:50:25;94486.94;;;7.32;100.00
22938;BME280;11634;42.734;23.298;2023-02-25T06:52:50;94512.56;;;7.54;100.00
22938;BME280;11634;42.734;23.298;2023-02-25T06:55:16;94506.84;;;7.79;100.00
22938;BME280;11634;42.734;23.298;2023-02-25T06:57:42;94497.19;;;8.00;100.00
22938;BME280;11634;42.734;23.298;2023-02-25T07:00:08;94514.63;;;8.07;100.00
22938;BME280;11634;42.734;23.298;2023-02-25T07:02:34;94485.03;;;8.10;100.00
22938;BME280;11634;42.734;23.298;2023-02-25T07:05:02;94490.09;;;7.83;100.00
22938;BME280;11634;42.734;23.298;2023-02-25T07:07:30;94497.56;;;7.95;100.00
22938;BME280;11634;42.734;23.298;2023-02-25T07:09:56;94477.78;;;8.04;100.00
22938;BME280;11634;42.734;23.298;2023-02-25T07:12:22;94491.72;;;8.21;100.00
22938;BME280;11634;42.734;23.298;2023-02-25T07:14:48;94496.59;;;8.43;100.00
22938;BME280;11634;42.734;23.298;2023-02-25T07:17:14;94468.25;;;8.32;100.00
22938;BME280;11634;42.734;23.298;2023-02-25T07:19:39;94495.97;;;8.68;100.00
22938;BME280;11634;42.734;23.298;2023-02-25T07:22:05;94489.28;;;9.02;100.00
22938;BME280;11634;42.734;23.298;2023-02-25T07:24:31;94503.81;;;9.22;100.00
22938;BME280;11634;42.734;23.298;2023-02-25T07:26:57;94499.31;;;9.41;100.00
22938;BME280;11634;42.734;23.298;2023-02-25T07:29:22;94485.91;;;9.63;100.00
22938;BME280;11634;42.734;23.298;2023-02-25T07:31:48;94477.44;;;9.43;100.00
22938;BME280;11634;42.734;23.298;2023-02-25T07:34:13;94436.88;;;9.16;100.00
22938;BME280;11634;42.734;23.298;2023-02-25T07:36:40;94463.56;;;9.70;100.00
22938;BME280;11634;42.734;23.298;2023-02-25T07:39:08;94458.44;;;9.78;100.00
22938;BME280;11634;42.734;23.298;2023-02-25T07:41:35;94456.09;;;10.01;100.00
22938;BME280;11634;42.734;23.298;2023-02-25T07:44:03;94350.72;;;9.29;100.00
22938;BME280;11634;42.734;23.298;2023-02-25T07:46:29;94440.03;;;10.06;100.00
22938;BME280;11634;42.734;23.298;2023-02-25T07:48:56;94439.31;;;10.21;100.00
22938;BME280;11634;42.734;23.298;2023-02-25T07:51:22;94463.78;;;10.53;100.00
22938;BME280;11634;42.734;23.298;2023-02-25T07:53:50;94452.22;;;10.81;100.00
22938;BME280;11634;42.734;23.298;2023-02-25T07:56:17;94415.28;;;10.78;100.00
22938;BME280;11634;42.734;23.298;2023-02-25T07:58:43;94456.47;;;11.23;100.00
22938;BME280;11634;42.734;23.298;2023-02-25T08:01:35;94456.69;;;11.45;100.00
22938;BME280;11634;42.734;23.298;2023-02-25T08:04:03;94436.41;;;11.73;100.00
22938;BME280;11634;42.734;23.298;2023-02-25T08:06:31;94446.06;;;11.88;100.00
22938;BME280;11634;42.734;23.298;2023-02-25T08:08:58;94445.84;;;11.58;100.00
22938;BME280;11634;42.734;23.298;2023-02-25T08:11:24;94464.59;;;11.61;100.00
22938;BME280;11634;42.734;23.298;2023-02-25T08:13:51;94458.50;;;11.45;100.00
22938;BME280;11634;42.734;23.298;2023-02-25T08:16:18;94426.97;;;11.56;100.00
22938;BME280;11634;42.734;23.298;2023-02-25T08:18:45;94428.94;;;11.86;100.00
22938;BME280;11634;42.734;23.298;2023-02-25T08:21:14;94462.69;;;12.35;100.00
22938;BME280;11634;42.734;23.298;2023-02-25T08:23:39;94438.91;;;12.14;100.00
22938;BME280;11634;42.734;23.298;2023-02-25T08:26:06;94442.63;;;11.96;100.00
22938;BME280;11634;42.734;23.298;2023-02-25T08:28:33;94449.47;;;11.89;100.00
22938;BME280;11634;42.734;23.298;2023-02-25T08:30:59;94440.69;;;11.90;100.00
22938;BME280;11634;42.734;23.298;2023-02-25T08:33:29;94442.13;;;12.00;100.00
22938;BME280;11634;42.734;23.298;2023-02-25T08:36:08;94425.69;;;12.23;100.00
22938;BME280;11634;42.734;23.298;2023-02-25T08:38:35;94433.34;;;12.09;100.00
22938;BME280;11634;42.734;23.298;2023-02-25T08:41:02;94426.31;;;12.25;100.00
22938;BME280;11634;42.734;23.298;2023-02-25T08:43:27;94419.97;;;12.36;100.00
22938;BME280;11634;42.734;23.298;2023-02-25T08:45:53;94419.16;;;12.03;100.00
22938;BME280;11634;42.734;23.298;2023-02-25T08:51:02;94407.75;;;11.73;100.00
22938;BME280;11634;42.734;23.298;2023-02-25T08:53:28;94413.59;;;11.51;100.00
22938;BME280;11634;42.734;23.298;2023-02-25T08:55:55;94407.41;;;11.52;100.00
22938;BME280;11634;42.734;23.298;2023-02-25T08:58:21;94400.41;;;11.60;100.00
22938;BME280;11634;42.734;23.298;2023-02-25T09:00:46;94420.28;;;11.53;100.00
22938;BME280;11634;42.734;23.298;2023-02-25T09:03:14;94422.56;;;11.56;100.00
22938;BME280;11634;42.734;23.298;2023-02-25T09:05:39;94399.13;;;11.72;100.00
22938;BME280;11634;42.734;23.298;2023-02-25T09:08:05;94399.28;;;11.63;100.00
22938;BME280;11634;42.734;23.298;2023-02-25T09:10:31;94403.31;;;11.49;100.00
22938;BME280;11634;42.734;23.298;2023-02-25T09:12:58;94397.81;;;11.68;100.00
22938;BME280;11634;42.734;23.298;2023-02-25T09:15:24;94389.63;;;11.47;100.00
22938;BME280;11634;42.734;23.298;2023-02-25T09:17:49;94395.47;;;11.42;100.00
22938;BME280;11634;42.734;23.298;2023-02-25T09:20:17;94391.25;;;11.48;100.00
22938;BME280;11634;42.734;23.298;2023-02-25T09:22:43;94393.88;;;11.48;100.00
22938;BME280;11634;42.734;23.298;2023-02-25T09:25:10;94394.28;;;11.28;100.00
22938;BME280;11634;42.734;23.298;2023-02-25T09:27:36;94342.50;;;11.01;100.00
22938;BME280;11634;42.734;23.298;2023-02-25T09:30:02;94406.06;;;11.48;100.00
22938;BME280;11634;42.734;23.298;2023-02-25T09:32:28;94344.63;;;11.14;100.00
22938;BME280;11634;42.734;23.298;2023-02-25T09:34:53;94363.84;;;11.21;100.00
22938;BME280;11634;42.734;23.298;2023-02-25T09:37:19;94360.75;;;11.25;100.00
22938;BME280;11634;42.734;23.298;2023-02-25T09:39:46;94375.47;;;11.50;100.00
22938;BME280;11634;42.734;23.298;2023-02-25T09:42:21;94365.22;;;11.56;100.00
22938;BME280;11634;42.734;23.298;2023-02-25T09:44:54;94358.88;;;11.91;100.00
22938;BME280;11634;42.734;23.298;2023-02-25T09:47:25;94368.47;;;12.14;100.00
22938;BME280;11634;42.734;23.298;2023-02-25T09:52:37;94327.38;;;12.16;100.00
22938;BME280;11634;42.734;23.298;2023-02-25T09:57:38;94342.78;;;12.49;100.00
22938;BME280;11634;42.734;23.298;2023-02-25T10:00:15;94339.59;;;12.77;100.00
22938;BME280;11634;42.734;23.298;2023-02-25T10:02:49;94312.47;;;12.78;98.27
22938;BME280;11634;42.734;23.298;2023-02-25T10:05:42;94332.19;;;13.19;93.98
22938;BME280;11634;42.734;23.298;2023-02-25T10:08:18;94316.44;;;13.35;78.95
22938;BME280;11634;42.734;23.298;2023-02-25T10:18:51;94301.50;;;13.66;89.45
22938;BME280;11634;42.734;23.298;2023-02-25T10:27:04;94272.81;;;13.13;100.00
22938;BME280;11634;42.734;23.298;2023-02-25T10:29:47;94254.81;;;13.18;100.00
22938;BME280;11634;42.734;23.298;2023-02-25T10:32:25;94253.63;;;13.20;100.00
22938;BME280;11634;42.734;23.298;2023-02-25T10:34:58;94231.88;;;13.06;100.00
22938;BME280;11634;42.734;23.298;2023-02-25T10:37:30;94255.84;;;13.09;100.00
22938;BME280;11634;42.734;23.298;2023-02-25T10:39:58;94247.53;;;13.06;100.00
22938;BME280;11634;42.734;23.298;2023-02-25T10:42:24;94220.03;;;12.95;100.00
22938;BME280;11634;42.734;23.298;2023-02-25T10:44:50;94242.91;;;13.15;100.00
22938;BME280;11634;42.734;23.298;2023-02-25T10:47:36;94258.72;;;13.22;99.76
22938;BME280;11634;42.734;23.298;2023-02-25T10:50:22;94227.69;;;13.19;96.67
22938;BME280;11634;42.734;23.298;2023-02-25T10:57:50;94240.81;;;13.70;85.05
22938;BME280;11634;42.734;23.298;2023-02-25T11:00:31;94221.34;;;13.72;76.33
22938;BME280;11634;42.734;23.298;2023-02-25T11:02:58;94235.31;;;14.16;75.77
22938;BME280;11634;42.734;23.298;2023-02-25T11:05:38;94229.63;;;14.13;77.53
22938;BME280;11634;42.734;23.298;2023-02-25T11:08:26;94215.91;;;14.25;76.52
22938;BME280;11634;42.734;23.298;2023-02-25T11:11:28;94230.53;;;14.20;75.71
22938;BME280;11634;42.734;23.298;2023-02-25T11:14:02;94216.63;;;14.33;72.20
22938;BME280;11634;42.734;23.298;2023-02-25T11:16:34;94211.38;;;14.33;69.80
22938;BME280;11634;42.734;23.298;2023-02-25T11:19:04;94202.28;;;14.79;60.37
22938;BME280;11634;42.734;23.298;2023-02-25T11:21:37;94193.41;;;15.36;55.95
22938;BME280;11634;42.734;23.298;2023-02-25T11:24:14;94201.53;;;15.68;53.38
22938;BME280;11634;42.734;23.298;2023-02-25T11:26:44;94185.09;;;15.87;52.39
22938;BME280;11634;42.734;23.298;2023-02-25T11:29:21;94188.63;;;16.00;52.09
22938;BME280;11634;42.734;23.298;2023-02-25T11:31:53;94187.72;;;16.21;51.32
22938;BME280;11634;42.734;23.298;2023-02-25T11:34:28;94161.03;;;16.11;50.90
22938;BME280;11634;42.734;23.298;2023-02-25T11:36:55;94161.16;;;16.30;50.66
22938;BME280;11634;42.734;23.298;2023-02-25T11:39:35;94180.19;;;16.39;50.69
22938;BME280;11634;42.734;23.298;2023-02-25T11:42:24;94185.66;;;16.43;50.04
22938;BME280;11634;42.734;23.298;2023-02-25T11:45:00;94176.97;;;16.43;50.56
22938;BME280;11634;42.734;23.298;2023-02-25T11:47:30;94174.75;;;16.46;49.66
22938;BME280;11634;42.734;23.298;2023-02-25T12:00:46;94167.59;;;16.74;49.61
22938;BME280;11634;42.734;23.298;2023-02-25T12:03:34;94180.41;;;16.90;49.24
22938;BME280;11634;42.734;23.298;2023-02-25T12:06:16;94192.16;;;17.07;49.15
22938;BME280;11634;42.734;23.298;2023-02-25T12:14:09;94163.00;;;16.96;49.34
22938;BME280;11634;42.734;23.298;2023-02-25T12:36:17;94149.78;;;16.63;50.91
22938;BME280;11634;42.734;23.298;2023-02-25T12:50:30;94117.47;;;16.82;50.36
22938;BME280;11634;42.734;23.298;2023-02-25T12:55:55;94107.41;;;17.05;50.06
22938;BME280;11634;42.734;23.298;2023-02-25T13:13:02;94120.56;;;17.18;49.24
22938;BME280;11634;42.734;23.298;2023-02-25T13:18:50;94106.38;;;17.12;49.79
22938;BME280;11634;42.734;23.298;2023-02-25T13:21:33;94099.91;;;17.02;49.81
22938;BME280;11634;42.734;23.298;2023-02-25T13:47:31;94087.75;;;16.75;49.50
22938;BME280;11634;42.734;23.298;2023-02-25T13:56:04;94054.97;;;16.65;49.88
22938;BME280;11634;42.734;23.298;2023-02-25T14:07:28;94080.47;;;16.64;50.52
22938;BME280;11634;42.734;23.298;2023-02-25T14:13:19;94065.50;;;16.65;50.48
22938;BME280;11634;42.734;23.298;2023-02-25T14:16:02;94050.94;;;16.62;50.46
22938;BME280;11634;42.734;23.298;2023-02-25T14:23:44;94054.19;;;16.64;50.80
22938;BME280;11634;42.734;23.298;2023-02-25T14:31:25;94056.22;;;16.75;50.38
22938;BME280;11634;42.734;23.298;2023-02-25T14:47:56;94057.78;;;16.57;50.79
22938;BME280;11634;42.734;23.298;2023-02-25T14:50:50;94056.38;;;16.54;51.17
22938;BME280;11634;42.734;23.298;2023-02-25T15:10:32;94119.03;;;16.51;51.96
22938;BME280;11634;42.734;23.298;2023-02-25T15:21:41;94117.56;;;16.42;52.17
22938;BME280;11634;42.734;23.298;2023-02-25T15:26:54;94119.56;;;16.34;52.73
22938;BME280;11634;42.734;23.298;2023-02-25T15:32:24;94126.81;;;16.32;53.24
22938;BME280;11634;42.734;23.298;2023-02-25T15:35:14;94110.19;;;16.18;53.60
22938;BME280;11634;42.734;23.298;2023-02-25T15:42:54;94092.72;;;16.04;53.66
22938;BME280;11634;42.734;23.298;2023-02-25T15:45:34;94086.72;;;16.10;53.71
22938;BME280;11634;42.734;23.298;2023-02-25T16:03:51;94130.34;;;16.18;54.35
22938;BME280;11634;42.734;23.298;2023-02-25T16:06:23;94116.19;;;16.12;54.20
22938;BME280;11634;42.734;23.298;2023-02-25T16:11:41;94100.84;;;16.09;54.37
22938;BME280;11634;42.734;23.298;2023-02-25T16:14:27;94117.63;;;16.15;54.12
22938;BME280;11634;42.734;23.298;2023-02-25T16:16:56;94117.22;;;16.18;54.07
22938;BME280;11634;42.734;23.298;2023-02-25T16:19:30;94121.06;;;16.15;54.18
22938;BME280;11634;42.734;23.298;2023-02-25T16:22:06;94114.56;;;16.11;53.79
22938;BME280;11634;42.734;23.298;2023-02-25T16:24:47;94113.53;;;16.06;53.96
22938;BME280;11634;42.734;23.298;2023-02-25T16:27:20;94111.94;;;16.11;53.96
22938;BME280;11634;42.734;23.298;2023-02-25T16:29:57;94125.25;;;16.03;54.30
22938;BME280;11634;42.734;23.298;2023-02-25T16:35:35;94109.28;;;15.98;54.40
22938;BME280;11634;42.734;23.298;2023-02-25T16:40:41;94112.09;;;15.97;54.61
22938;BME280;11634;42.734;23.298;2023-02-25T16:43:13;94121.59;;;15.98;54.73
22938;BME280;11634;42.734;23.298;2023-02-25T16:45:56;94127.53;;;15.79;55.10
22938;BME280;11634;42.734;23.298;2023-02-25T16:48:29;94142.59;;;15.98;55.15
22938;BME280;11634;42.734;23.298;2023-02-25T16:51:07;94159.94;;;15.92;55.09
22938;BME280;11634;42.734;23.298;2023-02-25T16:53:33;94155.22;;;15.88;55.22
22938;BME280;11634;42.734;23.298;2023-02-25T16:55:59;94146.31;;;15.83;55.61
22938;BME280;11634;42.734;23.298;2023-02-25T16:58:28;94174.44;;;15.95;55.52
22938;BME280;11634;42.734;23.298;2023-02-25T17:01:00;94166.44;;;16.03;55.51